sensor_id;sensor_type;location;lat;lon;timestamp;P1;durP1;ratioP1;P2;durP2;ratioP2
47778;SDS011;33538;48.432;11.350;2024-01-30T00:00:25;10.30;;;4.43;;
47778;SDS011;33538;48.432;11.350;2024-01-30T00:02:53;9.68;;;4.40;;
47778;SDS011;33538;48.432;11.350;2024-01-30T00:05:20;8.35;;;4.32;;
47778;SDS011;33538;48.432;11.350;2024-01-30T00:07:47;7.28;;;3.90;;
47778;SDS011;33538;48.432;11.350;2024-01-30T00:10:14;12.23;;;4.35;;
47778;SDS011;33538;48.432;11.350;2024-01-30T00:12:40;7.60;;;4.22;;
47778;SDS011;33538;48.432;11.350;2024-01-30T00:15:07;7.82;;;3.88;;
47778;SDS011;33538;48.432;11.350;2024-01-30T00:17:35;8.52;;;3.58;;
47778;SDS011;33538;48.432;11.350;2024-01-30T00:20:03;7.07;;;4.00;;
47778;SDS011;33538;48.432;11.350;2024-01-30T00:22:31;10.50;;;4.90;;
47778;SDS011;33538;48.432;11.350;2024-01-30T00:24:58;6.45;;;4.05;;
47778;SDS011;33538;48.432;11.350;2024-01-30T00:27:25;7.63;;;4.03;;
47778;SDS011;33538;48.432;11.350;2024-01-30T00:29:52;10.48;;;4.68;;
47778;SDS011;33538;48.432;11.350;2024-01-30T00:32:19;7.63;;;4.07;;
47778;SDS011;33538;48.432;11.350;2024-01-30T00:34:45;12.93;;;5.22;;
47778;SDS011;33538;48.432;11.350;2024-01-30T00:37:14;7.50;;;4.47;;
47778;SDS011;33538;48.432;11.350;2024-01-30T00:39:41;9.43;;;4.65;;
47778;SDS011;33538;48.432;11.350;2024-01-30T00:42:08;6.72;;;4.07;;
47778;SDS011;33538;48.432;11.350;2024-01-30T00:44:34;10.48;;;4.50;;
47778;SDS011;33538;48.432;11.350;2024-01-30T00:47:01;8.50;;;4.95;;
47778;SDS011;33538;48.432;11.350;2024-01-30T00:49:28;14.43;;;5.82;;
47778;SDS011;33538;48.432;11.350;2024-01-30T00:51:55;8.93;;;4.90;;
47778;SDS011;33538;48.432;11.350;2024-01-30T00:54:23;10.25;;;5.45;;
47778;SDS011;33538;48.432;11.350;2024-01-30T00:56:50;11.32;;;4.95;;
47778;SDS011;33538;48.432;11.350;2024-01-30T00:59:17;12.02;;;4.45;;
47778;SDS011;33538;48.432;11.350;2024-01-30T01:01:44;8.43;;;4.15;;
47778;SDS011;33538;48.432;11.350;2024-01-30T01:04:11;9.10;;;4.32;;
47778;SDS011;33538;48.432;11.350;2024-01-30T01:06:37;9.27;;;4.45;;
47778;SDS011;33538;48.432;11.350;2024-01-30T01:09:04;7.30;;;3.72;;
47778;SDS011;33538;48.432;11.350;2024-01-30T01:11:33;9.50;;;4.38;;
47778;SDS011;33538;48.432;11.350;2024-01-30T01:13:59;10.35;;;4.57;;
47778;SDS011;33538;48.432;11.350;2024-01-30T01:16:26;8.98;;;4.28;;
47778;SDS011;33538;48.432;11.350;2024-01-30T01:18:53;8.80;;;4.25;;
47778;SDS011;33538;48.432;11.350;2024-01-30T01:21:20;10.48;;;3.92;;
47778;SDS011;33538;48.432;11.350;2024-01-30T01:23:47;8.07;;;4.68;;
47778;SDS011;33538;48.432;11.350;2024-01-30T01:26:13;9.20;;;4.30;;
47778;SDS011;33538;48.432;11.350;2024-01-30T01:28:42;10.02;;;4.20;;
47778;SDS011;33538;48.432;11.350;2024-01-30T01:31:08;10.13;;;4.38;;
47778;SDS011;33538;48.432;11.350;2024-01-30T01:33:35;6.57;;;3.67;;
47778;SDS011;33538;48.432;11.350;2024-01-30T01:36:03;8.93;;;3.85;;
47778;SDS011;33538;48.432;11.350;2024-01-30T01:38:30;6.38;;;3.60;;
47778;SDS011;33538;48.432;11.350;2024-01-30T01:40:56;7.97;;;4.15;;
47778;SDS011;33538;48.432;11.350;2024-01-30T01:43:23;8.30;;;4.00;;
47778;SDS011;33538;48.432;11.350;2024-01-30T01:45:51;6.82;;;3.97;;
47778;SDS011;33538;48.432;11.350;2024-01-30T01:48:18;9.32;;;3.80;;
47778;SDS011;33538;48.432;11.350;2024-01-30T01:50:46;5.85;;;3.45;;
47778;SDS011;33538;48.432;11.350;2024-01-30T01:53:13;10.27;;;4.45;;
47778;SDS011;33538;48.432;11.350;2024-01-30T01:55:41;10.98;;;5.00;;
47778;SDS011;33538;48.432;11.350;2024-01-30T01:58:09;6.25;;;3.50;;
47778;SDS011;33538;48.432;11.350;2024-01-30T02:00:36;7.50;;;3.55;;
47778;SDS011;33538;48.432;11.350;2024-01-30T02:03:05;6.97;;;4.18;;
47778;SDS011;33538;48.432;11.350;2024-01-30T02:05:32;9.00;;;4.72;;
47778;SDS011;33538;48.432;11.350;2024-01-30T02:08:00;8.88;;;4.63;;
47778;SDS011;33538;48.432;11.350;2024-01-30T02:10:27;8.00;;;4.63;;
47778;SDS011;33538;48.432;11.350;2024-01-30T02:12:54;11.90;;;5.38;;
47778;SDS011;33538;48.432;11.350;2024-01-30T02:15:21;7.85;;;3.85;;
47778;SDS011;33538;48.432;11.350;2024-01-30T02:17:47;6.95;;;3.63;;
47778;SDS011;33538;48.432;11.350;2024-01-30T02:20:16;8.68;;;4.03;;
47778;SDS011;33538;48.432;11.350;2024-01-30T02:22:44;10.68;;;4.85;;
47778;SDS011;33538;48.432;11.350;2024-01-30T02:25:11;7.10;;;4.20;;
47778;SDS011;33538;48.432;11.350;2024-01-30T02:27:38;8.15;;;3.95;;
47778;SDS011;33538;48.432;11.350;2024-01-30T02:30:06;12.35;;;4.40;;
47778;SDS011;33538;48.432;11.350;2024-01-30T02:32:33;5.68;;;3.58;;
47778;SDS011;33538;48.432;11.350;2024-01-30T02:35:00;6.40;;;4.00;;
47778;SDS011;33538;48.432;11.350;2024-01-30T02:37:27;9.57;;;4.07;;
47778;SDS011;33538;48.432;11.350;2024-01-30T02:39:55;8.18;;;4.10;;
47778;SDS011;33538;48.432;11.350;2024-01-30T02:42:22;7.50;;;4.15;;
47778;SDS011;33538;48.432;11.350;2024-01-30T02:44:49;9.65;;;4.10;;
47778;SDS011;33538;48.432;11.350;2024-01-30T02:47:16;7.53;;;4.28;;
47778;SDS011;33538;48.432;11.350;2024-01-30T02:49:42;7.63;;;3.85;;
47778;SDS011;33538;48.432;11.350;2024-01-30T02:52:09;11.20;;;3.95;;
47778;SDS011;33538;48.432;11.350;2024-01-30T02:54:36;7.50;;;4.05;;
47778;SDS011;33538;48.432;11.350;2024-01-30T02:57:05;8.23;;;4.10;;
47778;SDS011;33538;48.432;11.350;2024-01-30T02:59:31;8.20;;;4.82;;
47778;SDS011;33538;48.432;11.350;2024-01-30T03:01:58;7.55;;;4.13;;
47778;SDS011;33538;48.432;11.350;2024-01-30T03:04:25;9.30;;;3.95;;
47778;SDS011;33538;48.432;11.350;2024-01-30T03:06:52;8.10;;;3.42;;
47778;SDS011;33538;48.432;11.350;2024-01-30T03:09:19;7.97;;;3.90;;
47778;SDS011;33538;48.432;11.350;2024-01-30T03:11:46;6.75;;;3.70;;
47778;SDS011;33538;48.432;11.350;2024-01-30T03:14:14;8.45;;;4.35;;
47778;SDS011;33538;48.432;11.350;2024-01-30T03:16:41;8.85;;;3.75;;
47778;SDS011;33538;48.432;11.350;2024-01-30T03:19:07;13.23;;;4.43;;
47778;SDS011;33538;48.432;11.350;2024-01-30T03:21:34;8.57;;;4.07;;
47778;SDS011;33538;48.432;11.350;2024-01-30T03:24:01;7.97;;;3.75;;
47778;SDS011;33538;48.432;11.350;2024-01-30T03:26:28;9.48;;;4.25;;
47778;SDS011;33538;48.432;11.350;2024-01-30T03:28:55;7.00;;;3.75;;
47778;SDS011;33538;48.432;11.350;2024-01-30T03:31:23;8.80;;;4.32;;
47778;SDS011;33538;48.432;11.350;2024-01-30T03:33:50;7.28;;;3.75;;
47778;SDS011;33538;48.432;11.350;2024-01-30T03:36:17;7.95;;;3.75;;
47778;SDS011;33538;48.432;11.350;2024-01-30T03:38:44;6.38;;;3.58;;
47778;SDS011;33538;48.432;11.350;2024-01-30T03:41:11;11.60;;;4.35;;
47778;SDS011;33538;48.432;11.350;2024-01-30T03:43:37;11.13;;;4.25;;
47778;SDS011;33538;48.432;11.350;2024-01-30T03:46:04;7.22;;;3.90;;
47778;SDS011;33538;48.432;11.350;2024-01-30T03:48:32;9.57;;;3.30;;
47778;SDS011;33538;48.432;11.350;2024-01-30T03:50:59;13.20;;;4.70;;
47778;SDS011;33538;48.432;11.350;2024-01-30T03:53:26;6.68;;;3.78;;
47778;SDS011;33538;48.432;11.350;2024-01-30T03:55:53;9.55;;;4.13;;
47778;SDS011;33538;48.432;11.350;2024-01-30T03:58:20;7.13;;;3.72;;
47778;SDS011;33538;48.432;11.350;2024-01-30T04:00:47;7.93;;;4.07;;
47778;SDS011;33538;48.432;11.350;2024-01-30T04:03:14;8.40;;;3.70;;
47778;SDS011;33538;48.432;11.350;2024-01-30T04:05:42;7.55;;;3.90;;
47778;SDS011;33538;48.432;11.350;2024-01-30T04:08:09;6.82;;;3.55;;
47778;SDS011;33538;48.432;11.350;2024-01-30T04:10:36;6.90;;;3.40;;
47778;SDS011;33538;48.432;11.350;2024-01-30T04:13:03;8.88;;;3.90;;
47778;SDS011;33538;48.432;11.350;2024-01-30T04:15:30;8.27;;;4.00;;
47778;SDS011;33538;48.432;11.350;2024-01-30T04:17:57;7.47;;;3.75;;
47778;SDS011;33538;48.432;11.350;2024-01-30T04:20:24;7.90;;;4.45;;
47778;SDS011;33538;48.432;11.350;2024-01-30T04:22:52;9.40;;;4.00;;
47778;SDS011;33538;48.432;11.350;2024-01-30T04:25:19;9.52;;;3.63;;
47778;SDS011;33538;48.432;11.350;2024-01-30T04:27:46;8.90;;;3.58;;
47778;SDS011;33538;48.432;11.350;2024-01-30T04:30:13;8.68;;;3.85;;
47778;SDS011;33538;48.432;11.350;2024-01-30T04:32:40;7.75;;;3.63;;
47778;SDS011;33538;48.432;11.350;2024-01-30T04:35:07;8.52;;;3.80;;
47778;SDS011;33538;48.432;11.350;2024-01-30T04:37:37;8.45;;;4.03;;
47778;SDS011;33538;48.432;11.350;2024-01-30T04:40:06;8.30;;;3.97;;
47778;SDS011;33538;48.432;11.350;2024-01-30T04:42:33;9.05;;;4.25;;
47778;SDS011;33538;48.432;11.350;2024-01-30T04:45:00;11.52;;;3.65;;
47778;SDS011;33538;48.432;11.350;2024-01-30T04:47:27;6.60;;;4.13;;
47778;SDS011;33538;48.432;11.350;2024-01-30T04:49:54;7.90;;;3.70;;
47778;SDS011;33538;48.432;11.350;2024-01-30T04:52:21;7.88;;;4.28;;
47778;SDS011;33538;48.432;11.350;2024-01-30T04:54:47;9.80;;;4.63;;
47778;SDS011;33538;48.432;11.350;2024-01-30T04:57:15;8.85;;;3.97;;
47778;SDS011;33538;48.432;11.350;2024-01-30T04:59:42;7.80;;;3.92;;
47778;SDS011;33538;48.432;11.350;2024-01-30T05:02:09;9.88;;;3.72;;
47778;SDS011;33538;48.432;11.350;2024-01-30T05:04:36;6.07;;;3.50;;
47778;SDS011;33538;48.432;11.350;2024-01-30T05:07:03;9.75;;;4.38;;
47778;SDS011;33538;48.432;11.350;2024-01-30T05:09:30;8.68;;;4.18;;
47778;SDS011;33538;48.432;11.350;2024-01-30T05:11:57;6.53;;;3.35;;
47778;SDS011;33538;48.432;11.350;2024-01-30T05:14:25;11.38;;;4.07;;
47778;SDS011;33538;48.432;11.350;2024-01-30T05:16:52;7.03;;;3.45;;
47778;SDS011;33538;48.432;11.350;2024-01-30T05:19:18;7.10;;;3.97;;
47778;SDS011;33538;48.432;11.350;2024-01-30T05:21:45;8.02;;;4.05;;
47778;SDS011;33538;48.432;11.350;2024-01-30T05:24:12;5.35;;;3.92;;
47778;SDS011;33538;48.432;11.350;2024-01-30T05:26:39;6.95;;;3.45;;
47778;SDS011;33538;48.432;11.350;2024-01-30T05:29:06;7.22;;;4.10;;
47778;SDS011;33538;48.432;11.350;2024-01-30T05:31:34;8.25;;;4.05;;
47778;SDS011;33538;48.432;11.350;2024-01-30T05:34:01;9.30;;;4.35;;
47778;SDS011;33538;48.432;11.350;2024-01-30T05:36:28;8.95;;;4.53;;
47778;SDS011;33538;48.432;11.350;2024-01-30T05:38:55;11.27;;;4.43;;
47778;SDS011;33538;48.432;11.350;2024-01-30T05:41:22;8.18;;;3.95;;
47778;SDS011;33538;48.432;11.350;2024-01-30T05:43:49;9.65;;;4.22;;
47778;SDS011;33538;48.432;11.350;2024-01-30T05:46:16;6.95;;;4.28;;
47778;SDS011;33538;48.432;11.350;2024-01-30T05:48:44;7.45;;;4.22;;
47778;SDS011;33538;48.432;11.350;2024-01-30T05:51:11;10.60;;;4.32;;
47778;SDS011;33538;48.432;11.350;2024-01-30T05:53:38;12.85;;;4.45;;
47778;SDS011;33538;48.432;11.350;2024-01-30T05:56:05;8.77;;;4.20;;
47778;SDS011;33538;48.432;11.350;2024-01-30T05:58:32;9.82;;;4.15;;
47778;SDS011;33538;48.432;11.350;2024-01-30T06:00:59;11.73;;;4.22;;
47778;SDS011;33538;48.432;11.350;2024-01-30T06:03:26;9.43;;;4.00;;
47778;SDS011;33538;48.432;11.350;2024-01-30T06:05:54;8.57;;;4.38;;
47778;SDS011;33538;48.432;11.350;2024-01-30T06:08:21;5.70;;;3.50;;
47778;SDS011;33538;48.432;11.350;2024-01-30T06:10:48;8.68;;;4.03;;
47778;SDS011;33538;48.432;11.350;2024-01-30T06:13:14;8.10;;;4.05;;
47778;SDS011;33538;48.432;11.350;2024-01-30T06:15:42;7.78;;;4.50;;
47778;SDS011;33538;48.432;11.350;2024-01-30T06:18:08;5.75;;;3.85;;
47778;SDS011;33538;48.432;11.350;2024-01-30T06:20:35;10.52;;;4.60;;
47778;SDS011;33538;48.432;11.350;2024-01-30T06:23:04;10.85;;;4.93;;
47778;SDS011;33538;48.432;11.350;2024-01-30T06:25:30;8.18;;;4.35;;
47778;SDS011;33538;48.432;11.350;2024-01-30T06:27:57;8.55;;;4.40;;
47778;SDS011;33538;48.432;11.350;2024-01-30T06:30:24;8.05;;;4.00;;
47778;SDS011;33538;48.432;11.350;2024-01-30T06:32:51;8.60;;;4.05;;
47778;SDS011;33538;48.432;11.350;2024-01-30T06:35:18;9.07;;;4.50;;
47778;SDS011;33538;48.432;11.350;2024-01-30T06:37:45;17.65;;;5.20;;
47778;SDS011;33538;48.432;11.350;2024-01-30T06:40:13;8.07;;;4.57;;
47778;SDS011;33538;48.432;11.350;2024-01-30T06:42:40;10.43;;;4.25;;
47778;SDS011;33538;48.432;11.350;2024-01-30T06:45:07;13.45;;;4.93;;
47778;SDS011;33538;48.432;11.350;2024-01-30T06:47:35;11.48;;;4.90;;
47778;SDS011;33538;48.432;11.350;2024-01-30T06:50:01;12.88;;;6.18;;
47778;SDS011;33538;48.432;11.350;2024-01-30T06:52:28;15.65;;;7.40;;
47778;SDS011;33538;48.432;11.350;2024-01-30T06:54:55;15.55;;;6.38;;
47778;SDS011;33538;48.432;11.350;2024-01-30T06:57:24;12.23;;;6.03;;
47778;SDS011;33538;48.432;11.350;2024-01-30T06:59:50;10.27;;;6.22;;
47778;SDS011;33538;48.432;11.350;2024-01-30T07:02:17;21.13;;;7.05;;
47778;SDS011;33538;48.432;11.350;2024-01-30T07:04:44;17.77;;;6.40;;
47778;SDS011;33538;48.432;11.350;2024-01-30T07:07:13;17.25;;;6.63;;
47778;SDS011;33538;48.432;11.350;2024-01-30T07:09:40;12.65;;;5.90;;
47778;SDS011;33538;48.432;11.350;2024-01-30T07:12:07;22.30;;;8.25;;
47778;SDS011;33538;48.432;11.350;2024-01-30T07:14:35;16.08;;;7.55;;
47778;SDS011;33538;48.432;11.350;2024-01-30T07:17:02;14.68;;;6.85;;
47778;SDS011;33538;48.432;11.350;2024-01-30T07:19:29;19.98;;;6.60;;
47778;SDS011;33538;48.432;11.350;2024-01-30T07:21:56;18.08;;;7.63;;
47778;SDS011;33538;48.432;11.350;2024-01-30T07:24:23;22.40;;;7.82;;
47778;SDS011;33538;48.432;11.350;2024-01-30T07:26:50;22.67;;;8.60;;
47778;SDS011;33538;48.432;11.350;2024-01-30T07:29:16;21.48;;;8.02;;
47778;SDS011;33538;48.432;11.350;2024-01-30T07:31:45;22.75;;;8.70;;
47778;SDS011;33538;48.432;11.350;2024-01-30T07:34:11;22.52;;;8.15;;
47778;SDS011;33538;48.432;11.350;2024-01-30T07:36:38;21.92;;;8.80;;
47778;SDS011;33538;48.432;11.350;2024-01-30T07:39:05;26.67;;;9.85;;
47778;SDS011;33538;48.432;11.350;2024-01-30T07:41:32;22.25;;;9.90;;
47778;SDS011;33538;48.432;11.350;2024-01-30T07:43:59;24.25;;;9.10;;
47778;SDS011;33538;48.432;11.350;2024-01-30T07:46:26;18.77;;;8.35;;
47778;SDS011;33538;48.432;11.350;2024-01-30T07:48:54;15.05;;;7.70;;
47778;SDS011;33538;48.432;11.350;2024-01-30T07:51:21;26.83;;;7.63;;
47778;SDS011;33538;48.432;11.350;2024-01-30T07:53:48;17.27;;;8.18;;
47778;SDS011;33538;48.432;11.350;2024-01-30T07:56:14;22.58;;;8.10;;
47778;SDS011;33538;48.432;11.350;2024-01-30T07:58:41;16.90;;;8.02;;
47778;SDS011;33538;48.432;11.350;2024-01-30T08:01:08;16.70;;;7.47;;
47778;SDS011;33538;48.432;11.350;2024-01-30T08:03:37;17.63;;;7.90;;
47778;SDS011;33538;48.432;11.350;2024-01-30T08:06:05;24.48;;;9.10;;
47778;SDS011;33538;48.432;11.350;2024-01-30T08:08:32;21.52;;;8.38;;
47778;SDS011;33538;48.432;11.350;2024-01-30T08:10:59;16.40;;;7.60;;
47778;SDS011;33538;48.432;11.350;2024-01-30T08:13:26;15.65;;;7.85;;
47778;SDS011;33538;48.432;11.350;2024-01-30T08:15:53;17.48;;;7.80;;
47778;SDS011;33538;48.432;11.350;2024-01-30T08:18:20;15.57;;;7.55;;
47778;SDS011;33538;48.432;11.350;2024-01-30T08:23:45;17.90;;;6.80;;
47778;SDS011;33538;48.432;11.350;2024-01-30T08:26:12;12.98;;;6.22;;
47778;SDS011;33538;48.432;11.350;2024-01-30T08:28:39;10.07;;;5.75;;
47778;SDS011;33538;48.432;11.350;2024-01-30T08:31:06;25.58;;;10.57;;
47778;SDS011;33538;48.432;11.350;2024-01-30T08:33:32;17.35;;;8.13;;
47778;SDS011;33538;48.432;11.350;2024-01-30T08:35:59;19.60;;;8.32;;
47778;SDS011;33538;48.432;11.350;2024-01-30T08:38:26;21.17;;;9.02;;
47778;SDS011;33538;48.432;11.350;2024-01-30T08:40:55;23.52;;;9.32;;
47778;SDS011;33538;48.432;11.350;2024-01-30T08:43:22;21.10;;;9.02;;
47778;SDS011;33538;48.432;11.350;2024-01-30T08:45:49;27.67;;;10.50;;
47778;SDS011;33538;48.432;11.350;2024-01-30T08:48:16;20.48;;;9.57;;
47778;SDS011;33538;48.432;11.350;2024-01-30T08:50:43;21.23;;;7.90;;
47778;SDS011;33538;48.432;11.350;2024-01-30T08:53:09;21.08;;;8.60;;
47778;SDS011;33538;48.432;11.350;2024-01-30T08:55:36;17.00;;;7.82;;
47778;SDS011;33538;48.432;11.350;2024-01-30T08:58:05;17.00;;;7.28;;
47778;SDS011;33538;48.432;11.350;2024-01-30T09:00:32;15.00;;;7.28;;
47778;SDS011;33538;48.432;11.350;2024-01-30T09:02:58;13.93;;;6.90;;
47778;SDS011;33538;48.432;11.350;2024-01-30T09:05:25;14.23;;;6.63;;
47778;SDS011;33538;48.432;11.350;2024-01-30T09:07:52;15.05;;;6.55;;
47778;SDS011;33538;48.432;11.350;2024-01-30T09:10:19;17.15;;;6.85;;
47778;SDS011;33538;48.432;11.350;2024-01-30T09:12:47;14.93;;;7.32;;
47778;SDS011;33538;48.432;11.350;2024-01-30T09:15:15;19.70;;;7.50;;
47778;SDS011;33538;48.432;11.350;2024-01-30T09:17:42;16.65;;;7.28;;
47778;SDS011;33538;48.432;11.350;2024-01-30T09:20:09;14.40;;;6.30;;
47778;SDS011;33538;48.432;11.350;2024-01-30T09:22:37;15.02;;;7.10;;
47778;SDS011;33538;48.432;11.350;2024-01-30T09:25:04;13.32;;;6.25;;
47778;SDS011;33538;48.432;11.350;2024-01-30T09:27:31;14.40;;;6.53;;
47778;SDS011;33538;48.432;11.350;2024-01-30T09:29:58;11.35;;;6.00;;
47778;SDS011;33538;48.432;11.350;2024-01-30T09:32:26;17.15;;;6.85;;
47778;SDS011;33538;48.432;11.350;2024-01-30T09:34:53;12.73;;;6.63;;
47778;SDS011;33538;48.432;11.350;2024-01-30T09:37:20;14.75;;;6.03;;
47778;SDS011;33538;48.432;11.350;2024-01-30T09:39:49;13.18;;;6.40;;
47778;SDS011;33538;48.432;11.350;2024-01-30T09:42:17;15.60;;;5.45;;
47778;SDS011;33538;48.432;11.350;2024-01-30T09:44:52;16.77;;;5.68;;
47778;SDS011;33538;48.432;11.350;2024-01-30T09:47:20;12.18;;;5.88;;
47778;SDS011;33538;48.432;11.350;2024-01-30T09:49:48;14.60;;;5.55;;
47778;SDS011;33538;48.432;11.350;2024-01-30T09:52:16;12.98;;;5.47;;
47778;SDS011;33538;48.432;11.350;2024-01-30T09:54:44;9.90;;;5.68;;
47778;SDS011;33538;48.432;11.350;2024-01-30T09:57:11;12.40;;;6.15;;
47778;SDS011;33538;48.432;11.350;2024-01-30T09:59:38;18.48;;;6.50;;
47778;SDS011;33538;48.432;11.350;2024-01-30T10:02:05;11.55;;;5.63;;
47778;SDS011;33538;48.432;11.350;2024-01-30T10:04:33;11.88;;;5.72;;
47778;SDS011;33538;48.432;11.350;2024-01-30T10:07:02;9.30;;;5.05;;
47778;SDS011;33538;48.432;11.350;2024-01-30T10:09:31;10.98;;;4.82;;
47778;SDS011;33538;48.432;11.350;2024-01-30T10:11:58;10.90;;;4.70;;
47778;SDS011;33538;48.432;11.350;2024-01-30T10:14:25;8.27;;;4.22;;
47778;SDS011;33538;48.432;11.350;2024-01-30T10:16:52;11.02;;;5.30;;
47778;SDS011;33538;48.432;11.350;2024-01-30T10:19:19;8.65;;;4.65;;
47778;SDS011;33538;48.432;11.350;2024-01-30T10:21:46;10.30;;;4.85;;
47778;SDS011;33538;48.432;11.350;2024-01-30T10:24:14;12.98;;;5.20;;
47778;SDS011;33538;48.432;11.350;2024-01-30T10:26:43;13.65;;;4.88;;
47778;SDS011;33538;48.432;11.350;2024-01-30T10:29:09;8.32;;;3.75;;
47778;SDS011;33538;48.432;11.350;2024-01-30T10:31:36;8.20;;;4.13;;
47778;SDS011;33538;48.432;11.350;2024-01-30T10:34:03;8.70;;;3.88;;
47778;SDS011;33538;48.432;11.350;2024-01-30T10:36:42;8.68;;;3.75;;
47778;SDS011;33538;48.432;11.350;2024-01-30T10:39:14;7.63;;;3.92;;
47778;SDS011;33538;48.432;11.350;2024-01-30T10:41:44;7.03;;;3.65;;
47778;SDS011;33538;48.432;11.350;2024-01-30T10:44:10;8.55;;;4.13;;
47778;SDS011;33538;48.432;11.350;2024-01-30T10:46:38;10.15;;;3.63;;
47778;SDS011;33538;48.432;11.350;2024-01-30T10:49:05;9.93;;;3.47;;
47778;SDS011;33538;48.432;11.350;2024-01-30T10:51:32;6.65;;;3.80;;
47778;SDS011;33538;48.432;11.350;2024-01-30T10:54:01;7.20;;;3.10;;
47778;SDS011;33538;48.432;11.350;2024-01-30T10:56:30;8.48;;;3.72;;
47778;SDS011;33538;48.432;11.350;2024-01-30T10:58:58;5.82;;;3.53;;
47778;SDS011;33538;48.432;11.350;2024-01-30T11:01:26;9.35;;;3.35;;
47778;SDS011;33538;48.432;11.350;2024-01-30T11:03:55;5.45;;;3.33;;
47778;SDS011;33538;48.432;11.350;2024-01-30T11:06:22;8.75;;;4.00;;
47778;SDS011;33538;48.432;11.350;2024-01-30T11:08:59;7.50;;;3.28;;
47778;SDS011;33538;48.432;11.350;2024-01-30T11:11:26;7.10;;;3.25;;
47778;SDS011;33538;48.432;11.350;2024-01-30T11:13:55;6.32;;;3.60;;
47778;SDS011;33538;48.432;11.350;2024-01-30T11:16:21;4.50;;;2.75;;
47778;SDS011;33538;48.432;11.350;2024-01-30T11:18:49;6.38;;;3.10;;
47778;SDS011;33538;48.432;11.350;2024-01-30T11:21:17;5.35;;;2.53;;
47778;SDS011;33538;48.432;11.350;2024-01-30T11:23:44;5.25;;;3.05;;
47778;SDS011;33538;48.432;11.350;2024-01-30T11:26:10;6.20;;;2.92;;
47778;SDS011;33538;48.432;11.350;2024-01-30T11:28:37;5.65;;;2.90;;
47778;SDS011;33538;48.432;11.350;2024-01-30T11:31:06;5.18;;;2.60;;
47778;SDS011;33538;48.432;11.350;2024-01-30T11:33:34;6.10;;;2.67;;
47778;SDS011;33538;48.432;11.350;2024-01-30T11:36:01;4.93;;;2.95;;
47778;SDS011;33538;48.432;11.350;2024-01-30T11:38:28;5.55;;;3.05;;
47778;SDS011;33538;48.432;11.350;2024-01-30T11:40:56;4.47;;;2.70;;
47778;SDS011;33538;48.432;11.350;2024-01-30T11:43:23;7.88;;;3.25;;
47778;SDS011;33538;48.432;11.350;2024-01-30T11:45:50;8.23;;;3.17;;
47778;SDS011;33538;48.432;11.350;2024-01-30T11:48:18;7.53;;;3.33;;
47778;SDS011;33538;48.432;11.350;2024-01-30T11:50:45;7.13;;;3.05;;
47778;SDS011;33538;48.432;11.350;2024-01-30T11:53:13;3.88;;;2.60;;
47778;SDS011;33538;48.432;11.350;2024-01-30T11:55:39;4.55;;;2.72;;
47778;SDS011;33538;48.432;11.350;2024-01-30T11:58:07;4.50;;;2.63;;
47778;SDS011;33538;48.432;11.350;2024-01-30T12:00:34;5.80;;;2.60;;
47778;SDS011;33538;48.432;11.350;2024-01-30T12:03:01;5.50;;;2.90;;
47778;SDS011;33538;48.432;11.350;2024-01-30T12:05:30;3.38;;;2.42;;
47778;SDS011;33538;48.432;11.350;2024-01-30T12:07:57;4.53;;;2.80;;
47778;SDS011;33538;48.432;11.350;2024-01-30T12:10:24;5.32;;;2.60;;
47778;SDS011;33538;48.432;11.350;2024-01-30T12:12:51;6.22;;;2.75;;
47778;SDS011;33538;48.432;11.350;2024-01-30T12:15:21;7.00;;;2.85;;
47778;SDS011;33538;48.432;11.350;2024-01-30T12:17:48;9.73;;;2.20;;
47778;SDS011;33538;48.432;11.350;2024-01-30T12:20:17;7.15;;;2.90;;
47778;SDS011;33538;48.432;11.350;2024-01-30T12:22:47;3.60;;;2.50;;
47778;SDS011;33538;48.432;11.350;2024-01-30T12:25:15;6.13;;;2.40;;
47778;SDS011;33538;48.432;11.350;2024-01-30T12:27:43;3.28;;;2.33;;
47778;SDS011;33538;48.432;11.350;2024-01-30T12:30:12;4.07;;;2.25;;
47778;SDS011;33538;48.432;11.350;2024-01-30T12:32:40;7.10;;;2.97;;
47778;SDS011;33538;48.432;11.350;2024-01-30T12:35:09;7.60;;;2.55;;
47778;SDS011;33538;48.432;11.350;2024-01-30T12:37:36;6.47;;;3.08;;
47778;SDS011;33538;48.432;11.350;2024-01-30T12:40:05;6.13;;;2.13;;
47778;SDS011;33538;48.432;11.350;2024-01-30T12:42:33;3.50;;;2.20;;
47778;SDS011;33538;48.432;11.350;2024-01-30T12:45:01;6.03;;;2.45;;
47778;SDS011;33538;48.432;11.350;2024-01-30T12:47:29;5.00;;;2.88;;
47778;SDS011;33538;48.432;11.350;2024-01-30T12:49:55;7.07;;;2.97;;
47778;SDS011;33538;48.432;11.350;2024-01-30T12:52:23;6.78;;;2.67;;
47778;SDS011;33538;48.432;11.350;2024-01-30T12:54:51;5.20;;;2.50;;
47778;SDS011;33538;48.432;11.350;2024-01-30T12:57:19;3.15;;;2.08;;
47778;SDS011;33538;48.432;11.350;2024-01-30T12:59:46;4.78;;;2.70;;
47778;SDS011;33538;48.432;11.350;2024-01-30T13:02:13;4.88;;;2.53;;
47778;SDS011;33538;48.432;11.350;2024-01-30T13:04:41;4.68;;;2.28;;
47778;SDS011;33538;48.432;11.350;2024-01-30T13:07:12;4.70;;;2.63;;
47778;SDS011;33538;48.432;11.350;2024-01-30T13:09:38;7.72;;;2.63;;
47778;SDS011;33538;48.432;11.350;2024-01-30T13:12:05;6.53;;;2.72;;
47778;SDS011;33538;48.432;11.350;2024-01-30T13:14:34;5.38;;;2.17;;
47778;SDS011;33538;48.432;11.350;2024-01-30T13:17:00;4.80;;;2.78;;
47778;SDS011;33538;48.432;11.350;2024-01-30T13:19:27;5.30;;;2.80;;
47778;SDS011;33538;48.432;11.350;2024-01-30T13:21:54;3.92;;;2.67;;
47778;SDS011;33538;48.432;11.350;2024-01-30T13:24:21;5.47;;;2.47;;
47778;SDS011;33538;48.432;11.350;2024-01-30T13:26:48;7.57;;;3.35;;
47778;SDS011;33538;48.432;11.350;2024-01-30T13:29:15;5.97;;;3.03;;
47778;SDS011;33538;48.432;11.350;2024-01-30T13:31:43;3.15;;;2.40;;
47778;SDS011;33538;48.432;11.350;2024-01-30T13:34:10;6.55;;;2.83;;
47778;SDS011;33538;48.432;11.350;2024-01-30T13:36:37;3.85;;;2.22;;
47778;SDS011;33538;48.432;11.350;2024-01-30T13:39:04;5.88;;;2.75;;
47778;SDS011;33538;48.432;11.350;2024-01-30T13:41:31;4.15;;;2.33;;
47778;SDS011;33538;48.432;11.350;2024-01-30T13:43:58;4.95;;;2.92;;
47778;SDS011;33538;48.432;11.350;2024-01-30T13:46:25;4.07;;;2.08;;
47778;SDS011;33538;48.432;11.350;2024-01-30T13:48:53;7.35;;;2.67;;
47778;SDS011;33538;48.432;11.350;2024-01-30T13:51:20;6.10;;;2.63;;
47778;SDS011;33538;48.432;11.350;2024-01-30T13:53:47;7.75;;;2.58;;
47778;SDS011;33538;48.432;11.350;2024-01-30T13:56:14;6.72;;;2.78;;
47778;SDS011;33538;48.432;11.350;2024-01-30T13:58:41;6.85;;;3.08;;
47778;SDS011;33538;48.432;11.350;2024-01-30T14:01:08;5.43;;;2.75;;
47778;SDS011;33538;48.432;11.350;2024-01-30T14:03:34;5.47;;;2.42;;
47778;SDS011;33538;48.432;11.350;2024-01-30T14:06:03;6.07;;;2.78;;
47778;SDS011;33538;48.432;11.350;2024-01-30T14:08:31;5.32;;;2.50;;
47778;SDS011;33538;48.432;11.350;2024-01-30T14:10:58;5.85;;;2.40;;
47778;SDS011;33538;48.432;11.350;2024-01-30T14:13:25;6.60;;;2.33;;
47778;SDS011;33538;48.432;11.350;2024-01-30T14:15:53;6.50;;;2.20;;
47778;SDS011;33538;48.432;11.350;2024-01-30T14:18:20;3.80;;;2.00;;
47778;SDS011;33538;48.432;11.350;2024-01-30T14:20:46;5.07;;;2.60;;
47778;SDS011;33538;48.432;11.350;2024-01-30T14:23:16;4.18;;;2.20;;
47778;SDS011;33538;48.432;11.350;2024-01-30T14:25:44;2.17;;;1.90;;
47778;SDS011;33538;48.432;11.350;2024-01-30T14:28:10;3.90;;;2.08;;
47778;SDS011;33538;48.432;11.350;2024-01-30T14:30:37;2.55;;;1.70;;
47778;SDS011;33538;48.432;11.350;2024-01-30T14:33:04;6.93;;;2.95;;